sensor_id;sensor_type;location;lat;lon;timestamp;pressure;altitude;pressure_sealevel;temperature;humidity
50349;BME280;36250;48.740;22.174;2023-12-14T00:00:30;98963.38;;;9.23;76.01
50349;BME280;36250;48.740;22.174;2023-12-14T00:02:56;98959.84;;;9.23;76.47
50349;BME280;36250;48.740;22.174;2023-12-14T00:05:21;98965.56;;;9.32;76.14
50349;BME280;36250;48.740;22.174;2023-12-14T00:07:46;98963.38;;;9.29;75.92
50349;BME280;36250;48.740;22.174;2023-12-14T00:10:11;98960.13;;;9.32;76.33
50349;BME280;36250;48.740;22.174;2023-12-14T00:12:37;98966.38;;;9.37;76.16
50349;BME280;36250;48.740;22.174;2023-12-14T00:15:02;98962.03;;;9.31;76.02
50349;BME280;36250;48.740;22.174;2023-12-14T00:17:28;98960.94;;;9.37;76.21
50349;BME280;36250;48.740;22.174;2023-12-14T00:19:53;98967.19;;;9.38;76.23
50349;BME280;36250;48.740;22.174;2023-12-14T00:22:18;98971.25;;;9.40;76.12
50349;BME280;36250;48.740;22.174;2023-12-14T00:24:44;98965.53;;;9.47;75.99
50349;BME280;36250;48.740;22.174;2023-12-14T00:27:09;98959.84;;;9.48;75.76
50349;BME280;36250;48.740;22.174;2023-12-14T00:29:34;98971.25;;;9.45;76.10
50349;BME280;36250;48.740;22.174;2023-12-14T00:31:59;98976.16;;;9.48;75.97
50349;BME280;36250;48.740;22.174;2023-12-14T00:34:24;98973.16;;;9.45;75.43
50349;BME280;36250;48.740;22.174;2023-12-14T00:36:50;98974.78;;;9.41;75.85
50349;BME280;36250;48.740;22.174;2023-12-14T00:39:15;98975.88;;;9.50;75.16
50349;BME280;36250;48.740;22.174;2023-12-14T00:41:40;98978.59;;;9.45;75.28
50349;BME280;36250;48.740;22.174;2023-12-14T00:44:05;98973.44;;;9.38;75.68
50349;BME280;36250;48.740;22.174;2023-12-14T00:46:30;98978.31;;;9.26;75.70
50349;BME280;36250;48.740;22.174;2023-12-14T00:48:56;98979.41;;;9.20;75.82
50349;BME280;36250;48.740;22.174;2023-12-14T00:51:21;98987.00;;;9.23;75.93
50349;BME280;36250;48.740;22.174;2023-12-14T00:53:46;98988.06;;;9.27;75.63
50349;BME280;36250;48.740;22.174;2023-12-14T00:56:11;98986.19;;;9.33;75.10
50349;BME280;36250;48.740;22.174;2023-12-14T00:58:37;99001.41;;;9.23;74.92
50349;BME280;36250;48.740;22.174;2023-12-14T01:01:02;98999.19;;;9.00;75.91
50349;BME280;36250;48.740;22.174;2023-12-14T01:03:27;99003.53;;;8.91;75.82
50349;BME280;36250;48.740;22.174;2023-12-14T01:05:52;99008.97;;;8.96;75.73
50349;BME280;36250;48.740;22.174;2023-12-14T01:08:18;99005.97;;;8.98;75.93
50349;BME280;36250;48.740;22.174;2023-12-14T01:10:43;99007.88;;;9.02;75.59
50349;BME280;36250;48.740;22.174;2023-12-14T01:13:08;99011.41;;;8.98;75.45
50349;BME280;36250;48.740;22.174;2023-12-14T01:15:33;99009.25;;;8.95;75.91
50349;BME280;36250;48.740;22.174;2023-12-14T01:17:59;99016.56;;;8.89;75.85
50349;BME280;36250;48.740;22.174;2023-12-14T01:20:24;99019.28;;;8.99;75.93
50349;BME280;36250;48.740;22.174;2023-12-14T01:22:49;99017.38;;;9.05;75.61
50349;BME280;36250;48.740;22.174;2023-12-14T01:25:14;99020.09;;;9.10;75.62
50349;BME280;36250;48.740;22.174;2023-12-14T01:27:40;99023.38;;;9.12;75.59
50349;BME280;36250;48.740;22.174;2023-12-14T01:30:05;99021.19;;;9.04;75.94
50349;BME280;36250;48.740;22.174;2023-12-14T01:32:31;99021.44;;;8.87;75.75
50349;BME280;36250;48.740;22.174;2023-12-14T01:34:56;99014.06;;;8.83;76.29
50349;BME280;36250;48.740;22.174;2023-12-14T01:37:21;99017.34;;;8.80;76.28
50349;BME280;36250;48.740;22.174;2023-12-14T01:39:46;99014.34;;;8.76;76.46
50349;BME280;36250;48.740;22.174;2023-12-14T01:42:12;99015.13;;;8.67;76.25
50349;BME280;36250;48.740;22.174;2023-12-14T01:44:37;99020.28;;;8.58;76.69
50349;BME280;36250;48.740;22.174;2023-12-14T01:47:02;99021.63;;;8.61;76.82
50349;BME280;36250;48.740;22.174;2023-12-14T01:49:27;99013.19;;;8.57;77.47
50349;BME280;36250;48.740;22.174;2023-12-14T01:51:53;99008.88;;;8.66;76.82
50349;BME280;36250;48.740;22.174;2023-12-14T01:54:18;99008.06;;;8.71;76.82
50349;BME280;36250;48.740;22.174;2023-12-14T01:56:43;99001.59;;;8.77;76.66
50349;BME280;36250;48.740;22.174;2023-12-14T01:59:08;98996.69;;;8.74;77.09
50349;BME280;36250;48.740;22.174;2023-12-14T02:01:41;98993.16;;;8.73;76.66
50349;BME280;36250;48.740;22.174;2023-12-14T02:04:07;98989.66;;;8.68;77.04
50349;BME280;36250;48.740;22.174;2023-12-14T02:06:32;98998.56;;;8.68;76.75
50349;BME280;36250;48.740;22.174;2023-12-14T02:08:57;99001.84;;;8.70;76.21
50349;BME280;36250;48.740;22.174;2023-12-14T02:11:22;99012.41;;;8.67;76.87
50349;BME280;36250;48.740;22.174;2023-12-14T02:13:48;99012.16;;;8.63;76.61
50349;BME280;36250;48.740;22.174;2023-12-14T02:16:13;99014.06;;;8.68;76.02
50349;BME280;36250;48.740;22.174;2023-12-14T02:18:38;99006.47;;;8.75;76.31
50349;BME280;36250;48.740;22.174;2023-12-14T02:21:03;98994.53;;;8.76;76.02
50349;BME280;36250;48.740;22.174;2023-12-14T02:23:29;99003.25;;;8.78;75.99
50349;BME280;36250;48.740;22.174;2023-12-14T02:25:54;99003.50;;;8.76;76.02
50349;BME280;36250;48.740;22.174;2023-12-14T02:28:20;99008.38;;;8.79;75.62
50349;BME280;36250;48.740;22.174;2023-12-14T02:30:45;99012.16;;;8.73;75.76
50349;BME280;36250;48.740;22.174;2023-12-14T02:33:10;99001.03;;;8.70;75.77
50349;BME280;36250;48.740;22.174;2023-12-14T02:35:35;98997.22;;;8.71;75.51
50349;BME280;36250;48.740;22.174;2023-12-14T02:38:00;99014.63;;;8.80;75.71
50349;BME280;36250;48.740;22.174;2023-12-14T02:40:26;99026.88;;;8.87;75.49
50349;BME280;36250;48.740;22.174;2023-12-14T02:42:51;99020.09;;;8.90;75.68
50349;BME280;36250;48.740;22.174;2023-12-14T02:45:16;99016.28;;;8.96;75.00
50349;BME280;36250;48.740;22.174;2023-12-14T02:47:41;99022.25;;;8.93;75.39
50349;BME280;36250;48.740;22.174;2023-12-14T02:50:07;99030.13;;;8.89;74.84
50349;BME280;36250;48.740;22.174;2023-12-14T02:52:32;99049.91;;;8.85;74.91
50349;BME280;36250;48.740;22.174;2023-12-14T02:54:57;99051.81;;;8.84;74.66
50349;BME280;36250;48.740;22.174;2023-12-14T02:57:23;99048.28;;;8.84;74.62
50349;BME280;36250;48.740;22.174;2023-12-14T02:59:48;99049.34;;;8.83;74.37
50349;BME280;36250;48.740;22.174;2023-12-14T03:02:13;99051.75;;;8.69;74.07
50349;BME280;36250;48.740;22.174;2023-12-14T03:04:38;99042.28;;;8.72;74.91
50349;BME280;36250;48.740;22.174;2023-12-14T03:07:06;99037.09;;;8.65;73.91
50349;BME280;36250;48.740;22.174;2023-12-14T03:09:32;99039.50;;;8.56;74.90
50349;BME280;36250;48.740;22.174;2023-12-14T03:11:58;99028.09;;;8.54;74.42
50349;BME280;36250;48.740;22.174;2023-12-14T03:14:24;99037.00;;;8.40;74.86
50349;BME280;36250;48.740;22.174;2023-12-14T03:16:49;99032.34;;;8.30;75.48
50349;BME280;36250;48.740;22.174;2023-12-14T03:19:15;99037.16;;;8.23;76.25
50349;BME280;36250;48.740;22.174;2023-12-14T03:21:40;99032.19;;;8.10;76.82
50349;BME280;36250;48.740;22.174;2023-12-14T03:24:06;99036.50;;;8.01;77.13
50349;BME280;36250;48.740;22.174;2023-12-14T03:26:31;99032.75;;;8.12;77.41
50349;BME280;36250;48.740;22.174;2023-12-14T03:28:56;99034.97;;;8.20;77.08
50349;BME280;36250;48.740;22.174;2023-12-14T03:31:21;99037.69;;;8.20;76.60
50349;BME280;36250;48.740;22.174;2023-12-14T03:33:47;99025.16;;;8.09;76.94
50349;BME280;36250;48.740;22.174;2023-12-14T03:36:12;99031.78;;;7.86;78.42
50349;BME280;36250;48.740;22.174;2023-12-14T03:38:37;99030.38;;;7.79;79.26
50349;BME280;36250;48.740;22.174;2023-12-14T03:41:02;99035.81;;;7.79;79.67
50349;BME280;36250;48.740;22.174;2023-12-14T03:43:27;99041.81;;;7.86;79.28
50349;BME280;36250;48.740;22.174;2023-12-14T03:45:53;99045.09;;;7.93;78.92
50349;BME280;36250;48.740;22.174;2023-12-14T03:48:18;99038.66;;;7.99;78.86
50349;BME280;36250;48.740;22.174;2023-12-14T03:50:44;99046.22;;;8.02;78.51
50349;BME280;36250;48.740;22.174;2023-12-14T03:53:09;99047.63;;;8.10;78.50
50349;BME280;36250;48.740;22.174;2023-12-14T03:55:34;99070.25;;;8.25;77.95
50349;BME280;36250;48.740;22.174;2023-12-14T03:57:59;99064.59;;;8.32;77.72
50349;BME280;36250;48.740;22.174;2023-12-14T04:00:25;99076.56;;;8.36;77.48
50349;BME280;36250;48.740;22.174;2023-12-14T04:02:50;99093.16;;;8.44;77.52
50349;BME280;36250;48.740;22.174;2023-12-14T04:05:15;99087.72;;;8.44;77.29
50349;BME280;36250;48.740;22.174;2023-12-14T04:07:41;99099.13;;;8.51;76.88
50349;BME280;36250;48.740;22.174;2023-12-14T04:12:31;99117.38;;;8.66;76.23
50349;BME280;36250;48.740;22.174;2023-12-14T04:14:56;99117.16;;;8.73;75.89
50349;BME280;36250;48.740;22.174;2023-12-14T04:17:22;99133.16;;;8.74;75.72
50349;BME280;36250;48.740;22.174;2023-12-14T04:19:47;99129.59;;;8.69;75.76
50349;BME280;36250;48.740;22.174;2023-12-14T04:22:12;99125.53;;;8.66;76.09
50349;BME280;36250;48.740;22.174;2023-12-14T04:24:37;99125.28;;;8.68;75.76
50349;BME280;36250;48.740;22.174;2023-12-14T04:27:03;99134.50;;;8.72;76.00
50349;BME280;36250;48.740;22.174;2023-12-14T04:29:28;99129.56;;;8.64;75.61
50349;BME280;36250;48.740;22.174;2023-12-14T04:31:53;99138.25;;;8.61;75.84
50349;BME280;36250;48.740;22.174;2023-12-14T04:34:18;99126.88;;;8.69;75.58
50349;BME280;36250;48.740;22.174;2023-12-14T04:36:47;99129.09;;;8.77;75.41
50349;BME280;36250;48.740;22.174;2023-12-14T04:39:13;99127.50;;;8.81;75.31
50349;BME280;36250;48.740;22.174;2023-12-14T04:41:38;99124.25;;;8.84;75.19
50349;BME280;36250;48.740;22.174;2023-12-14T04:44:03;99136.09;;;8.63;74.95
50349;BME280;36250;48.740;22.174;2023-12-14T04:46:28;99135.69;;;8.44;75.06
50349;BME280;36250;48.740;22.174;2023-12-14T04:48:54;99134.53;;;8.30;75.13
50349;BME280;36250;48.740;22.174;2023-12-14T04:51:19;99143.50;;;8.30;75.11
50349;BME280;36250;48.740;22.174;2023-12-14T04:53:45;99147.88;;;8.41;75.20
50349;BME280;36250;48.740;22.174;2023-12-14T04:56:10;99147.69;;;8.48;75.00
50349;BME280;36250;48.740;22.174;2023-12-14T04:58:36;99160.41;;;8.47;74.89
50349;BME280;36250;48.740;22.174;2023-12-14T05:01:01;99157.66;;;8.42;75.53
50349;BME280;36250;48.740;22.174;2023-12-14T05:03:27;99167.50;;;8.48;75.12
50349;BME280;36250;48.740;22.174;2023-12-14T05:05:52;99171.31;;;8.52;75.20
50349;BME280;36250;48.740;22.174;2023-12-14T05:08:18;99167.53;;;8.58;75.22
50349;BME280;36250;48.740;22.174;2023-12-14T05:10:43;99173.28;;;8.67;74.91
50349;BME280;36250;48.740;22.174;2023-12-14T05:13:08;99178.44;;;8.69;74.53
50349;BME280;36250;48.740;22.174;2023-12-14T05:15:33;99172.00;;;8.80;74.32
50349;BME280;36250;48.740;22.174;2023-12-14T05:17:59;99174.75;;;8.85;74.21
50349;BME280;36250;48.740;22.174;2023-12-14T05:20:24;99180.16;;;8.85;73.80
50349;BME280;36250;48.740;22.174;2023-12-14T05:22:49;99183.44;;;8.87;73.89
50349;BME280;36250;48.740;22.174;2023-12-14T05:25:14;99192.00;;;8.69;74.03
50349;BME280;36250;48.740;22.174;2023-12-14T05:27:40;99187.63;;;8.63;74.14
50349;BME280;36250;48.740;22.174;2023-12-14T05:30:05;99184.09;;;8.62;73.85
50349;BME280;36250;48.740;22.174;2023-12-14T05:32:30;99179.75;;;8.61;73.63
50349;BME280;36250;48.740;22.174;2023-12-14T05:34:56;99183.50;;;8.50;73.48
50349;BME280;36250;48.740;22.174;2023-12-14T05:37:21;99191.59;;;8.45;73.52
50349;BME280;36250;48.740;22.174;2023-12-14T05:39:46;99201.13;;;8.52;73.24
50349;BME280;36250;48.740;22.174;2023-12-14T05:42:11;99211.63;;;8.44;72.43
50349;BME280;36250;48.740;22.174;2023-12-14T05:44:37;99208.16;;;8.48;73.04
50349;BME280;36250;48.740;22.174;2023-12-14T05:47:02;99220.41;;;8.56;73.25
50349;BME280;36250;48.740;22.174;2023-12-14T05:49:27;99216.69;;;8.67;73.07
50349;BME280;36250;48.740;22.174;2023-12-14T05:51:53;99219.97;;;8.74;72.75
50349;BME280;36250;48.740;22.174;2023-12-14T05:54:18;99228.44;;;8.78;72.67
50349;BME280;36250;48.740;22.174;2023-12-14T05:56:43;99234.13;;;8.81;72.59
50349;BME280;36250;48.740;22.174;2023-12-14T05:59:08;99241.38;;;8.71;72.57
50349;BME280;36250;48.740;22.174;2023-12-14T06:01:33;99248.56;;;8.50;72.62
50349;BME280;36250;48.740;22.174;2023-12-14T06:03:59;99257.44;;;8.40;72.54
50349;BME280;36250;48.740;22.174;2023-12-14T06:06:24;99252.06;;;8.45;72.81
50349;BME280;36250;48.740;22.174;2023-12-14T06:08:49;99263.75;;;8.46;72.60
50349;BME280;36250;48.740;22.174;2023-12-14T06:11:14;99257.44;;;8.40;72.53
50349;BME280;36250;48.740;22.174;2023-12-14T06:13:40;99263.34;;;8.32;71.92
50349;BME280;36250;48.740;22.174;2023-12-14T06:16:05;99268.25;;;8.35;71.75
50349;BME280;36250;48.740;22.174;2023-12-14T06:18:31;99266.31;;;8.31;72.10
50349;BME280;36250;48.740;22.174;2023-12-14T06:20:57;99262.84;;;8.35;71.69
50349;BME280;36250;48.740;22.174;2023-12-14T06:23:22;99268.25;;;8.35;71.55
50349;BME280;36250;48.740;22.174;2023-12-14T06:25:47;99271.91;;;8.24;71.34
50349;BME280;36250;48.740;22.174;2023-12-14T06:28:12;99277.75;;;8.11;71.55
50349;BME280;36250;48.740;22.174;2023-12-14T06:30:38;99277.66;;;8.01;72.28
50349;BME280;36250;48.740;22.174;2023-12-14T06:33:03;99290.72;;;8.04;72.49
50349;BME280;36250;48.740;22.174;2023-12-14T06:35:28;99291.25;;;8.06;72.08
50349;BME280;36250;48.740;22.174;2023-12-14T06:37:54;99296.06;;;7.99;72.70
50349;BME280;36250;48.740;22.174;2023-12-14T06:40:19;99289.56;;;8.00;72.77
50349;BME280;36250;48.740;22.174;2023-12-14T06:42:44;99292.22;;;7.95;72.82
50349;BME280;36250;48.740;22.174;2023-12-14T06:45:09;99301.44;;;7.94;73.45
50349;BME280;36250;48.740;22.174;2023-12-14T06:47:35;99306.69;;;7.79;73.95
50349;BME280;36250;48.740;22.174;2023-12-14T06:50:00;99315.88;;;7.78;74.13
50349;BME280;36250;48.740;22.174;2023-12-14T06:52:25;99320.72;;;7.76;74.91
50349;BME280;36250;48.740;22.174;2023-12-14T06:54:51;99318.63;;;7.83;74.49
50349;BME280;36250;48.740;22.174;2023-12-14T06:57:16;99318.63;;;7.83;74.58
50349;BME280;36250;48.740;22.174;2023-12-14T06:59:41;99328.97;;;7.86;74.64
50349;BME280;36250;48.740;22.174;2023-12-14T07:02:07;99327.97;;;7.92;74.28
50349;BME280;36250;48.740;22.174;2023-12-14T07:04:32;99333.75;;;8.01;73.74
50349;BME280;36250;48.740;22.174;2023-12-14T07:06:57;99336.78;;;8.04;73.58
50349;BME280;36250;48.740;22.174;2023-12-14T07:09:23;99343.81;;;8.05;73.69
50349;BME280;36250;48.740;22.174;2023-12-14T07:11:48;99343.63;;;8.12;73.11
50349;BME280;36250;48.740;22.174;2023-12-14T07:14:13;99342.38;;;8.24;72.54
50349;BME280;36250;48.740;22.174;2023-12-14T07:16:42;99357.28;;;8.43;72.39
50349;BME280;36250;48.740;22.174;2023-12-14T07:19:07;99363.69;;;8.64;72.27
50349;BME280;36250;48.740;22.174;2023-12-14T07:21:32;99377.66;;;8.83;71.87
50349;BME280;36250;48.740;22.174;2023-12-14T07:23:57;99373.66;;;8.90;71.52
50349;BME280;36250;48.740;22.174;2023-12-14T07:26:24;99378.59;;;8.93;71.41
50349;BME280;36250;48.740;22.174;2023-12-14T07:28:49;99382.13;;;8.94;70.97
50349;BME280;36250;48.740;22.174;2023-12-14T07:31:14;99374.41;;;8.81;70.73
50349;BME280;36250;48.740;22.174;2023-12-14T07:33:39;99392.88;;;8.84;70.90
50349;BME280;36250;48.740;22.174;2023-12-14T07:36:04;99393.78;;;8.63;71.60
50349;BME280;36250;48.740;22.174;2023-12-14T07:38:30;99393.69;;;8.52;71.55
50349;BME280;36250;48.740;22.174;2023-12-14T07:40:56;99401.47;;;8.44;71.67
50349;BME280;36250;48.740;22.174;2023-12-14T07:43:21;99391.75;;;8.48;71.21
50349;BME280;36250;48.740;22.174;2023-12-14T07:45:47;99397.53;;;8.30;70.59
50349;BME280;36250;48.740;22.174;2023-12-14T07:48:12;99404.31;;;8.11;70.05
50349;BME280;36250;48.740;22.174;2023-12-14T07:50:37;99421.63;;;8.26;70.48
50349;BME280;36250;48.740;22.174;2023-12-14T07:53:03;99418.75;;;8.38;69.55
50349;BME280;36250;48.740;22.174;2023-12-14T07:55:28;99430.78;;;8.25;68.90
50349;BME280;36250;48.740;22.174;2023-12-14T07:57:54;99427.91;;;8.32;69.35
50349;BME280;36250;48.740;22.174;2023-12-14T08:00:19;99421.97;;;8.35;69.23
50349;BME280;36250;48.740;22.174;2023-12-14T08:02:44;99438.09;;;8.46;68.66
50349;BME280;36250;48.740;22.174;2023-12-14T08:05:09;99431.56;;;8.42;67.57
50349;BME280;36250;48.740;22.174;2023-12-14T08:07:35;99451.31;;;8.38;68.50
50349;BME280;36250;48.740;22.174;2023-12-14T08:10:00;99445.88;;;8.38;68.08
50349;BME280;36250;48.740;22.174;2023-12-14T08:12:25;99453.13;;;8.32;67.91
50349;BME280;36250;48.740;22.174;2023-12-14T08:14:50;99453.25;;;8.21;67.52
50349;BME280;36250;48.740;22.174;2023-12-14T08:17:16;99460.53;;;8.20;67.50
50349;BME280;36250;48.740;22.174;2023-12-14T08:19:41;99453.69;;;8.34;67.04
50349;BME280;36250;48.740;22.174;2023-12-14T08:22:07;99467.25;;;8.34;66.39
50349;BME280;36250;48.740;22.174;2023-12-14T08:24:35;99467.56;;;8.16;66.53
50349;BME280;36250;48.740;22.174;2023-12-14T08:27:01;99465.00;;;8.26;66.83
50349;BME280;36250;48.740;22.174;2023-12-14T08:29:26;99472.66;;;8.34;66.92
50349;BME280;36250;48.740;22.174;2023-12-14T08:31:51;99478.53;;;8.48;66.60
50349;BME280;36250;48.740;22.174;2023-12-14T08:34:17;99493.47;;;8.50;66.57
50349;BME280;36250;48.740;22.174;2023-12-14T08:36:42;99477.88;;;8.19;65.00
50349;BME280;36250;48.740;22.174;2023-12-14T08:39:07;99496.69;;;8.04;65.99
50349;BME280;36250;48.740;22.174;2023-12-14T08:41:32;99496.59;;;7.99;67.33
50349;BME280;36250;48.740;22.174;2023-12-14T08:43:58;99502.25;;;8.36;65.60
50349;BME280;36250;48.740;22.174;2023-12-14T08:46:23;99495.66;;;8.53;66.03
50349;BME280;36250;48.740;22.174;2023-12-14T08:48:48;99505.13;;;8.51;65.87
50349;BME280;36250;48.740;22.174;2023-12-14T08:51:14;99511.94;;;8.75;65.65
50349;BME280;36250;48.740;22.174;2023-12-14T08:53:39;99503.69;;;8.92;65.73
50349;BME280;36250;48.740;22.174;2023-12-14T08:56:04;99512.53;;;9.09;65.59
50349;BME280;36250;48.740;22.174;2023-12-14T08:58:30;99513.50;;;9.24;65.40
50349;BME280;36250;48.740;22.174;2023-12-14T09:00:55;99517.13;;;9.35;65.73
50349;BME280;36250;48.740;22.174;2023-12-14T09:03:20;99518.03;;;9.46;65.39
50349;BME280;36250;48.740;22.174;2023-12-14T09:05:46;99521.91;;;9.55;65.38
50349;BME280;36250;48.740;22.174;2023-12-14T09:08:11;99529.31;;;9.64;64.86
50349;BME280;36250;48.740;22.174;2023-12-14T09:10:36;99527.69;;;9.68;64.82
50349;BME280;36250;48.740;22.174;2023-12-14T09:13:02;99539.63;;;9.62;64.52
50349;BME280;36250;48.740;22.174;2023-12-14T09:15:29;99546.06;;;9.56;63.85
50349;BME280;36250;48.740;22.174;2023-12-14T09:17:54;99546.91;;;9.57;63.83
50349;BME280;36250;48.740;22.174;2023-12-14T09:20:19;99546.69;;;9.63;63.59
50349;BME280;36250;48.740;22.174;2023-12-14T09:22:45;99555.69;;;9.69;63.78
50349;BME280;36250;48.740;22.174;2023-12-14T09:25:10;99559.63;;;9.51;62.44
50349;BME280;36250;48.740;22.174;2023-12-14T09:27:35;99558.91;;;9.34;62.93
50349;BME280;36250;48.740;22.174;2023-12-14T09:30:01;99555.03;;;9.25;63.61
50349;BME280;36250;48.740;22.174;2023-12-14T09:32:26;99561.81;;;9.22;63.20
50349;BME280;36250;48.740;22.174;2023-12-14T09:34:51;99558.19;;;9.12;63.26
50349;BME280;36250;48.740;22.174;2023-12-14T09:37:17;99567.19;;;9.17;63.50
50349;BME280;36250;48.740;22.174;2023-12-14T09:39:42;99567.06;;;9.07;64.06
50349;BME280;36250;48.740;22.174;2023-12-14T09:42:07;99562.13;;;9.26;64.65
50349;BME280;36250;48.740;22.174;2023-12-14T09:44:33;99572.94;;;8.94;63.02
50349;BME280;36250;48.740;22.174;2023-12-14T09:47:00;99578.75;;;8.81;64.26
50349;BME280;36250;48.740;22.174;2023-12-14T09:49:26;99577.78;;;8.92;64.59
50349;BME280;36250;48.740;22.174;2023-12-14T09:51:54;99583.03;;;8.99;64.27
50349;BME280;36250;48.740;22.174;2023-12-14T09:54:21;99584.19;;;9.08;63.94
50349;BME280;36250;48.740;22.174;2023-12-14T09:56:47;99586.34;;;9.06;64.04
50349;BME280;36250;48.740;22.174;2023-12-14T09:59:12;99583.97;;;9.09;63.52
50349;BME280;36250;48.740;22.174;2023-12-14T10:01:38;99576.25;;;9.28;64.35
50349;BME280;36250;48.740;22.174;2023-12-14T10:04:13;99583.72;;;9.43;63.63
50349;BME280;36250;48.740;22.174;2023-12-14T10:06:39;99588.22;;;9.59;63.19
50349;BME280;36250;48.740;22.174;2023-12-14T10:09:04;99586.13;;;9.71;63.59
50349;BME280;36250;48.740;22.174;2023-12-14T10:11:34;99582.53;;;9.60;61.34
50349;BME280;36250;48.740;22.174;2023-12-14T10:14:00;99582.22;;;9.57;62.65
50349;BME280;36250;48.740;22.174;2023-12-14T10:16:31;99584.44;;;9.60;63.30
50349;BME280;36250;48.740;22.174;2023-12-14T10:18:58;99591.06;;;9.42;62.44
50349;BME280;36250;48.740;22.174;2023-12-14T10:21:24;99591.72;;;9.01;62.46
50349;BME280;36250;48.740;22.174;2023-12-14T10:23:49;99604.13;;;8.92;63.36
50349;BME280;36250;48.740;22.174;2023-12-14T10:26:14;99597.66;;;8.98;64.32
50349;BME280;36250;48.740;22.174;2023-12-14T10:28:40;99604.28;;;9.07;63.37
50349;BME280;36250;48.740;22.174;2023-12-14T10:31:05;99610.56;;;9.12;63.57
50349;BME280;36250;48.740;22.174;2023-12-14T10:33:30;99611.50;;;9.23;63.50
50349;BME280;36250;48.740;22.174;2023-12-14T10:35:56;99609.81;;;9.17;62.83
50349;BME280;36250;48.740;22.174;2023-12-14T10:38:21;99616.72;;;8.81;63.63
50349;BME280;36250;48.740;22.174;2023-12-14T10:40:49;99620.72;;;8.74;63.64
50349;BME280;36250;48.740;22.174;2023-12-14T10:43:15;99615.78;;;8.71;63.98
50349;BME280;36250;48.740;22.174;2023-12-14T10:45:41;99625.50;;;8.88;64.34
50349;BME280;36250;48.740;22.174;2023-12-14T10:48:08;99618.56;;;8.97;63.64
50349;BME280;36250;48.740;22.174;2023-12-14T10:50:34;99627.06;;;9.06;64.22
50349;BME280;36250;48.740;22.174;2023-12-14T10:53:01;99632.63;;;9.16;63.29
50349;BME280;36250;48.740;22.174;2023-12-14T10:57:56;99641.09;;;8.98;62.79
50349;BME280;36250;48.740;22.174;2023-12-14T11:00:22;99659.38;;;8.86;62.68
50349;BME280;36250;48.740;22.174;2023-12-14T11:02:47;99665.72;;;8.91;63.46
50349;BME280;36250;48.740;22.174;2023-12-14T11:05:13;99666.53;;;8.92;62.80
50349;BME280;36250;48.740;22.174;2023-12-14T11:10:12;99668.09;;;8.88;63.26
50349;BME280;36250;48.740;22.174;2023-12-14T11:12:39;99672.84;;;8.97;63.93
50349;BME280;36250;48.740;22.174;2023-12-14T11:15:16;99679.84;;;9.15;63.47
50349;BME280;36250;48.740;22.174;2023-12-14T11:17:42;99669.59;;;9.22;63.97
50349;BME280;36250;48.740;22.174;2023-12-14T11:20:25;99670.88;;;9.36;63.68
50349;BME280;36250;48.740;22.174;2023-12-14T11:22:51;99671.47;;;9.43;62.87
50349;BME280;36250;48.740;22.174;2023-12-14T11:25:20;99677.81;;;9.54;63.06
50349;BME280;36250;48.740;22.174;2023-12-14T11:27:45;99680.31;;;9.55;63.04
50349;BME280;36250;48.740;22.174;2023-12-14T11:30:11;99672.66;;;9.52;63.16
50349;BME280;36250;48.740;22.174;2023-12-14T11:32:36;99687.50;;;9.45;62.24
50349;BME280;36250;48.740;22.174;2023-12-14T11:35:01;99685.22;;;9.32;62.49
50349;BME280;36250;48.740;22.174;2023-12-14T11:37:26;99691.84;;;9.19;63.17
50349;BME280;36250;48.740;22.174;2023-12-14T11:39:53;99696.00;;;9.05;63.33
50349;BME280;36250;48.740;22.174;2023-12-14T11:42:19;99697.66;;;9.06;63.16
50349;BME280;36250;48.740;22.174;2023-12-14T11:44:45;99712.88;;;9.07;63.49
50349;BME280;36250;48.740;22.174;2023-12-14T11:47:10;99705.59;;;9.12;63.09
50349;BME280;36250;48.740;22.174;2023-12-14T11:49:35;99706.34;;;9.08;63.13
50349;BME280;36250;48.740;22.174;2023-12-14T11:52:02;99711.78;;;9.08;63.03
50349;BME280;36250;48.740;22.174;2023-12-14T11:54:29;99716.59;;;9.01;62.83
50349;BME280;36250;48.740;22.174;2023-12-14T11:56:54;99723.28;;;8.93;62.83
50349;BME280;36250;48.740;22.174;2023-12-14T11:59:19;99723.28;;;8.93;63.65
50349;BME280;36250;48.740;22.174;2023-12-14T12:01:55;99732.56;;;8.97;63.08
50349;BME280;36250;48.740;22.174;2023-12-14T12:04:21;99734.50;;;8.80;63.56
50349;BME280;36250;48.740;22.174;2023-12-14T12:06:47;99733.13;;;8.61;63.69
50349;BME280;36250;48.740;22.174;2023-12-14T12:09:12;99737.44;;;8.40;64.54
50349;BME280;36250;48.740;22.174;2023-12-14T12:11:38;99744.72;;;8.23;64.62
50349;BME280;36250;48.740;22.174;2023-12-14T12:14:04;99742.22;;;8.05;65.60
50349;BME280;36250;48.740;22.174;2023-12-14T12:16:29;99741.47;;;7.93;65.76
50349;BME280;36250;48.740;22.174;2023-12-14T12:18:56;99749.22;;;8.01;65.33
50349;BME280;36250;48.740;22.174;2023-12-14T12:21:21;99750.63;;;7.75;65.59
50349;BME280;36250;48.740;22.174;2023-12-14T12:23:46;99755.34;;;7.80;66.06
50349;BME280;36250;48.740;22.174;2023-12-14T12:26:11;99756.56;;;7.72;66.14
50349;BME280;36250;48.740;22.174;2023-12-14T12:28:37;99767.50;;;7.77;66.33
50349;BME280;36250;48.740;22.174;2023-12-14T12:31:02;99767.75;;;7.92;66.39
50349;BME280;36250;48.740;22.174;2023-12-14T12:33:28;99766.78;;;7.99;66.37
50349;BME280;36250;48.740;22.174;2023-12-14T12:35:53;99766.97;;;8.09;66.10
50349;BME280;36250;48.740;22.174;2023-12-14T12:38:19;99772.31;;;8.20;65.52
50349;BME280;36250;48.740;22.174;2023-12-14T12:40:45;99779.03;;;8.18;65.20
50349;BME280;36250;48.740;22.174;2023-12-14T12:43:10;99781.97;;;8.28;65.28
50349;BME280;36250;48.740;22.174;2023-12-14T12:45:35;99782.78;;;8.28;64.69
50349;BME280;36250;48.740;22.174;2023-12-14T12:48:01;99790.19;;;8.33;65.07
50349;BME280;36250;48.740;22.174;2023-12-14T12:50:28;99794.94;;;8.42;65.60
50349;BME280;36250;48.740;22.174;2023-12-14T12:52:54;99792.16;;;8.54;65.13
50349;BME280;36250;48.740;22.174;2023-12-14T12:55:19;99793.97;;;8.48;64.57
50349;BME280;36250;48.740;22.174;2023-12-14T12:57:44;99796.91;;;8.47;64.73